Aviation Digital Data Service (ADDS)

Output produced by METARs form (1612 UTC 23 January 2019)
found at http://www.aviationweather.gov/metar/data/
 
Forecast for: EHGR (GILZE-RIJEN RNLA, NL)
Text: TAF EHGR 231343Z 2314/2402 02005KT 8000 FEW015 SCT020 BKN030
Forecast period: 1400 to 2000 UTC 23 January 2019
Forecast type: FROM: standard forecast or significant change
Winds: from the NNE (20 degrees) at 6 MPH (5 knots; 2.6 m/s)
Visibility: 5 miles (8 km)
Ceiling: 3000 feet AGL
Clouds: few clouds at 1500 feet AGL
scattered clouds at 2000 feet AGL
broken clouds at 3000 feet AGL
Weather: no significant weather forecast for this period
Text: BECMG 2320/2322 FEW025
Forecast period: 2000 UTC 23 January 2019 to 0200 UTC 24 January 2019
Forecast type: BECOMING: Conditions expected to become as follows by 2200 UTC 23 January 2019
Winds: from the NNE (20 degrees) at 6 MPH (5 knots; 2.6 m/s)
Visibility: 5 miles (8 km)
Ceiling: at least 12,000 feet AGL
Clouds: few clouds at 2500 feet AGL
Weather: no significant weather forecast for this period
Text: PROB30
Forecast period: 0000 to 0200 UTC 24 January 2019
Forecast type: TEMPORARY: The following changes expected for less than half the time period
Visibility: 0.75 miles (1.21 km)
Ceiling: unknown
Clouds: missing
Weather: FZFG  (freezing fog)